Varde, Denmark
Current Conditions -  °F | °C
As of 6:20 AM on Saturday 25 Oct 2014 (Local Time) from EKEB Reporting Station
Rain Showers Rain Showers  
Wind Chill: 55°   Ceiling: 300
Heat Index: 55°   Visibility: 3mi
Dew Point: 54°   Wind: 10mph
Humidity: 94%   Direction: 180°S
Pressure: 29.85"   Gusts: NA
Location:  55.62°N, 8.48°E
Report Text: EKEB 250420Z AUTO 18009KT 4900NDV -SHRA BR OVC003///13/12 Q1011
Loading
Personal Weather Stations






























Interactive Weather Map
Tropical Storm Tracking
New forecast layout! Learn more

10-Day Weather Forecast

Advertisements
Track Severe Weather on mobile